Ponfret Center, Connecticut
Current Conditions -  °F | °C
As of 2:52 PM on Friday 19 Dec 2014 (Local Time) from KIJD Reporting Station
Overcast Overcast  
Wind Chill: 29°   Ceiling: 3200
Heat Index: 34°   Visibility: 10mi
Dew Point: 21°   Wind: 6mph
Humidity: 59%   Direction: 310°NW
Pressure: 30"   Gusts: NA
Location:  41.869°N, 71.9903°W
Report Text: KIJD 191952Z AUTO 31005KT 10SM OVC032 01/M06 A3000 RMK AO2 SLP160 T00111061
Loading
Personal Weather Stations






























Interactive Weather Map New forecast layout! Learn more

10-Day Weather Forecast

Advertisements
Track Severe Weather on mobile